createdAt,value
2023-02-21T00:00:58.503Z,1.30
2023-02-21T00:01:58.573Z,1.80
2023-02-21T00:02:58.461Z,1.20
2023-02-21T00:03:58.437Z,1.30
2023-02-21T00:04:58.426Z,1.40
2023-02-21T00:05:58.436Z,1.60
2023-02-21T00:06:58.396Z,1.70
2023-02-21T00:07:58.380Z,1.30
2023-02-21T00:08:58.366Z,1.50
2023-02-21T00:09:58.349Z,1.20
2023-02-21T00:10:58.335Z,1.10
2023-02-21T00:11:58.314Z,1.10
2023-02-21T00:12:58.306Z,1.50
2023-02-21T00:13:58.312Z,1.10
2023-02-21T00:14:58.272Z,2.30
2023-02-21T00:15:58.256Z,1.90
2023-02-21T00:16:58.241Z,1.50
2023-02-21T00:17:58.224Z,2.00
2023-02-21T00:18:58.260Z,1.70
2023-02-21T00:19:58.192Z,1.90
2023-02-21T00:20:58.183Z,1.40
2023-02-21T00:21:58.160Z,1.40
2023-02-21T00:22:58.146Z,1.40
2023-02-21T00:23:58.130Z,1.80
2023-02-21T00:25:58.099Z,1.70
2023-02-21T00:26:58.090Z,1.20
2023-02-21T00:27:58.075Z,1.30
2023-02-21T00:28:58.049Z,1.40
2023-02-21T00:29:58.060Z,1.00
2023-02-21T00:30:58.128Z,1.20
2023-02-21T00:31:58.018Z,1.70
2023-02-21T00:32:58.092Z,1.20
2023-02-21T00:33:57.984Z,1.20
2023-02-21T00:34:57.962Z,1.40
2023-02-21T00:35:57.950Z,1.50
2023-02-21T00:36:57.923Z,1.70
2023-02-21T00:37:57.913Z,2.30
2023-02-21T00:38:57.891Z,1.60
2023-02-21T00:39:57.887Z,1.60
2023-02-21T00:40:57.868Z,1.70
2023-02-21T00:41:57.852Z,1.20
2023-02-21T00:42:57.834Z,1.40
2023-02-21T00:43:57.814Z,1.50
2023-02-21T00:44:57.795Z,1.50
2023-02-21T00:45:57.891Z,1.40
2023-02-21T00:46:57.967Z,2.30
2023-02-21T00:47:57.758Z,1.40
2023-02-21T00:48:57.732Z,2.10
2023-02-21T00:49:57.719Z,1.40
2023-02-21T00:50:57.702Z,1.70
2023-02-21T00:51:57.691Z,1.50
2023-02-21T00:52:57.669Z,2.10
2023-02-21T00:53:57.655Z,1.70
2023-02-21T00:55:57.624Z,1.70
2023-02-21T00:56:57.610Z,1.40
2023-02-21T00:57:57.588Z,1.10
2023-02-21T00:58:57.590Z,1.50
2023-02-21T00:59:57.559Z,1.60
2023-02-21T01:00:57.579Z,1.00
2023-02-21T01:01:57.547Z,1.10
2023-02-21T01:02:57.528Z,0.90
2023-02-21T01:03:57.528Z,1.10
2023-02-21T01:04:57.486Z,1.30
2023-02-21T01:05:57.479Z,1.20
2023-02-21T01:06:57.462Z,1.40
2023-02-21T01:07:57.437Z,1.20
2023-02-21T01:08:57.424Z,1.60
2023-02-21T01:09:57.405Z,1.10
2023-02-21T01:10:57.392Z,1.50
2023-02-21T01:11:57.376Z,1.40
2023-02-21T01:12:57.364Z,1.20
2023-02-21T01:13:57.345Z,2.20
2023-02-21T01:14:57.339Z,1.00
2023-02-21T01:15:57.347Z,1.20
2023-02-21T01:17:01.983Z,1.60
2023-02-21T01:17:57.298Z,1.80
2023-02-21T01:18:57.267Z,1.20
2023-02-21T01:19:57.250Z,1.60
2023-02-21T01:20:57.236Z,1.60
2023-02-21T01:21:57.225Z,1.80
2023-02-21T01:22:57.204Z,1.20
2023-02-21T01:23:57.190Z,1.50
2023-02-21T01:24:57.174Z,2.00
2023-02-21T01:25:57.154Z,1.30
2023-02-21T01:26:57.144Z,1.30
2023-02-21T01:27:57.124Z,0.90
2023-02-21T01:28:57.113Z,1.10
2023-02-21T01:29:57.094Z,1.50
2023-02-21T01:30:57.310Z,1.80
2023-02-21T01:31:57.071Z,1.70
2023-02-21T01:32:57.106Z,1.40
2023-02-21T01:33:57.076Z,1.80
2023-02-21T01:34:57.017Z,1.50
2023-02-21T01:35:57.001Z,1.70
2023-02-21T01:36:56.983Z,1.10
2023-02-21T01:37:56.966Z,1.20
2023-02-21T01:38:56.951Z,1.80
2023-02-21T01:39:56.940Z,1.90
2023-02-21T01:40:56.921Z,1.40
2023-02-21T01:41:56.903Z,1.60
2023-02-21T01:42:56.902Z,1.70
2023-02-21T01:43:56.869Z,1.70
2023-02-21T01:44:56.861Z,1.50
2023-02-21T01:45:56.845Z,1.20
2023-02-21T01:46:56.824Z,1.00
2023-02-21T01:47:56.803Z,1.20
2023-02-21T01:48:56.790Z,1.20
2023-02-21T01:49:56.812Z,1.80
2023-02-21T01:50:56.767Z,0.90
2023-02-21T01:51:56.745Z,1.30
2023-02-21T01:52:56.738Z,2.90
2023-02-21T01:53:56.721Z,2.00
2023-02-21T01:54:56.710Z,1.70
2023-02-21T01:55:56.683Z,1.30
2023-02-21T01:56:56.668Z,1.60
2023-02-21T01:57:56.645Z,1.90
2023-02-21T01:58:56.632Z,1.40
2023-02-21T01:59:56.612Z,1.60
2023-02-21T02:00:56.600Z,1.90
2023-02-21T02:01:56.579Z,1.60
2023-02-21T02:02:56.579Z,2.00
2023-02-21T02:03:56.552Z,2.00
2023-02-21T02:04:56.534Z,1.90
2023-02-21T02:05:56.541Z,1.70
2023-02-21T02:06:56.518Z,1.50
2023-02-21T02:07:56.533Z,1.40
2023-02-21T02:08:56.523Z,1.40
2023-02-21T02:09:56.460Z,1.60
2023-02-21T02:10:56.451Z,1.30
2023-02-21T02:11:56.421Z,1.60
2023-02-21T02:12:56.418Z,1.90
2023-02-21T02:13:56.387Z,2.10
2023-02-21T02:14:56.381Z,1.50
2023-02-21T02:15:56.562Z,2.20
2023-02-21T02:16:56.353Z,1.40
2023-02-21T02:17:56.322Z,2.70
2023-02-21T02:18:56.326Z,1.80
2023-02-21T02:19:56.294Z,1.70
2023-02-21T02:20:56.279Z,1.70
2023-02-21T02:21:56.281Z,1.50
2023-02-21T02:22:56.252Z,2.40
2023-02-21T02:23:56.229Z,1.70
2023-02-21T02:24:56.212Z,1.10
2023-02-21T02:25:56.194Z,1.30
2023-02-21T02:26:56.230Z,1.00
2023-02-21T02:27:56.168Z,1.90
2023-02-21T02:28:56.147Z,1.30
2023-02-21T02:29:56.130Z,2.60
2023-02-21T02:30:56.136Z,1.30
2023-02-21T02:31:56.216Z,1.90
2023-02-21T02:32:56.085Z,1.80
2023-02-21T02:33:56.064Z,1.10
2023-02-21T02:34:56.052Z,1.50
2023-02-21T02:35:56.034Z,1.60
2023-02-21T02:36:56.037Z,2.00
2023-02-21T02:37:56.024Z,1.90
2023-02-21T02:38:55.988Z,1.70
2023-02-21T02:39:55.970Z,2.10
2023-02-21T02:40:55.960Z,1.30
2023-02-21T02:41:55.935Z,1.30
2023-02-21T02:42:55.921Z,1.90
2023-02-21T02:43:55.909Z,2.10
2023-02-21T02:44:55.888Z,2.50
2023-02-21T02:45:55.870Z,2.30
2023-02-21T02:46:55.855Z,1.60
2023-02-21T02:47:55.836Z,2.10
2023-02-21T02:48:55.825Z,1.60
2023-02-21T02:49:55.804Z,1.60
2023-02-21T02:50:55.788Z,1.80
2023-02-21T02:51:55.773Z,1.80
2023-02-21T02:52:55.757Z,1.70
2023-02-21T02:53:55.764Z,2.30
2023-02-21T02:55:55.708Z,1.50
2023-02-21T02:56:55.688Z,2.00
2023-02-21T02:57:55.672Z,1.90
2023-02-21T02:58:55.656Z,1.70
2023-02-21T02:59:55.650Z,2.00
2023-02-21T03:00:55.625Z,1.70
2023-02-21T03:01:55.684Z,1.60
2023-02-21T03:02:55.599Z,1.80
2023-02-21T03:03:55.697Z,1.30
2023-02-21T03:04:55.561Z,2.00
2023-02-21T03:05:55.539Z,2.30
2023-02-21T03:06:55.534Z,1.60
2023-02-21T03:07:55.507Z,2.10
2023-02-21T03:08:55.497Z,1.60
2023-02-21T03:09:55.497Z,1.20
2023-02-21T03:10:55.460Z,1.70
2023-02-21T03:11:55.442Z,1.70
2023-02-21T03:12:55.429Z,2.00
2023-02-21T03:13:55.414Z,1.90
2023-02-21T03:14:55.396Z,1.50
2023-02-21T03:15:55.436Z,1.70
2023-02-21T03:16:55.366Z,1.70
2023-02-21T03:17:55.342Z,2.00
2023-02-21T03:19:55.313Z,2.30
2023-02-21T03:20:55.305Z,1.60
2023-02-21T03:21:55.287Z,1.70
2023-02-21T03:22:55.265Z,2.80
2023-02-21T03:23:55.253Z,1.90
2023-02-21T03:24:55.233Z,1.70
2023-02-21T03:25:55.238Z,2.00
2023-02-21T03:26:55.198Z,2.00
2023-02-21T03:27:55.184Z,1.60
2023-02-21T03:28:55.212Z,1.40
2023-02-21T03:29:55.150Z,1.90
2023-02-21T03:30:55.175Z,1.70
2023-02-21T03:31:55.197Z,1.30
2023-02-21T03:32:55.104Z,1.60
2023-02-21T03:33:55.086Z,1.90
2023-02-21T03:34:55.065Z,1.60
2023-02-21T03:35:55.053Z,1.50
2023-02-21T03:36:55.036Z,1.60
2023-02-21T03:37:55.025Z,1.30
2023-02-21T03:38:54.998Z,2.00
2023-02-21T03:39:54.985Z,1.70
2023-02-21T03:40:54.969Z,1.80
2023-02-21T03:41:54.971Z,2.10
2023-02-21T03:42:54.934Z,1.70
2023-02-21T03:43:54.931Z,2.10
2023-02-21T03:44:54.903Z,1.80
2023-02-21T03:45:54.886Z,2.00
2023-02-21T03:46:54.969Z,2.10
2023-02-21T03:47:55.056Z,1.50
2023-02-21T03:48:54.835Z,1.80
2023-02-21T03:49:54.822Z,1.50
2023-02-21T03:50:54.803Z,1.60
2023-02-21T03:51:54.787Z,1.80
2023-02-21T03:52:54.768Z,1.40
2023-02-21T03:53:54.757Z,1.40
2023-02-21T03:54:54.737Z,2.10
2023-02-21T03:55:54.729Z,2.10
2023-02-21T03:56:54.704Z,1.30
2023-02-21T03:57:54.710Z,2.00
2023-02-21T03:58:54.693Z,1.50
2023-02-21T03:59:54.664Z,1.90
2023-02-21T04:00:54.716Z,1.30
2023-02-21T04:01:54.690Z,2.20
2023-02-21T04:02:54.608Z,1.80
2023-02-21T04:03:54.594Z,1.40
2023-02-21T04:04:54.575Z,1.40
2023-02-21T04:05:54.560Z,1.40
2023-02-21T04:06:54.542Z,1.80
2023-02-21T04:07:54.539Z,2.10
2023-02-21T04:08:54.525Z,1.40
2023-02-21T04:09:54.495Z,2.10
2023-02-21T04:10:54.474Z,1.90
2023-02-21T04:11:54.466Z,2.10
2023-02-21T04:12:54.542Z,1.80
2023-02-21T04:13:54.450Z,1.50
2023-02-21T04:14:54.409Z,1.60
2023-02-21T04:15:54.395Z,2.30
2023-02-21T04:16:54.378Z,1.10
2023-02-21T04:17:54.362Z,1.50
2023-02-21T04:18:54.342Z,1.60
2023-02-21T04:19:54.329Z,2.30
2023-02-21T04:20:54.310Z,1.50
2023-02-21T04:21:54.296Z,1.40
2023-02-21T04:23:03.192Z,1.40
2023-02-21T04:23:54.263Z,1.40
2023-02-21T04:24:54.244Z,2.00
2023-02-21T04:25:54.240Z,1.90
2023-02-21T04:26:54.214Z,1.40
2023-02-21T04:27:54.226Z,2.00
2023-02-21T04:28:54.178Z,2.80
2023-02-21T04:29:54.186Z,1.90
2023-02-21T04:30:54.196Z,2.00
2023-02-21T04:31:54.236Z,1.50
2023-02-21T04:32:54.110Z,1.40
2023-02-21T04:34:05.748Z,1.70
2023-02-21T04:34:54.084Z,1.60
2023-02-21T04:35:54.063Z,2.40
2023-02-21T04:36:54.050Z,1.50
2023-02-21T04:37:54.033Z,2.20
2023-02-21T04:38:54.013Z,1.20
2023-02-21T04:39:54.001Z,2.20
2023-02-21T04:40:53.975Z,1.70
2023-02-21T04:41:53.968Z,1.50
2023-02-21T04:42:53.944Z,2.20
2023-02-21T04:43:53.941Z,1.50
2023-02-21T04:45:00.036Z,1.90
2023-02-21T04:45:53.971Z,1.50
2023-02-21T04:46:53.878Z,1.30
2023-02-21T04:47:53.925Z,1.50
2023-02-21T04:48:53.857Z,2.10
2023-02-21T04:49:53.836Z,1.20
2023-02-21T04:50:55.931Z,2.00
2023-02-21T04:51:53.809Z,1.30
2023-02-21T04:52:53.782Z,1.60
2023-02-21T04:53:53.764Z,1.60
2023-02-21T04:54:53.748Z,2.10
2023-02-21T04:55:53.732Z,2.20
2023-02-21T04:56:53.733Z,2.20
2023-02-21T04:57:53.699Z,2.10
2023-02-21T04:58:53.677Z,2.00
2023-02-21T04:59:53.667Z,1.90
2023-02-21T05:00:53.655Z,1.60
2023-02-21T05:01:53.656Z,1.60
2023-02-21T05:02:53.609Z,1.70
2023-02-21T05:03:53.641Z,1.70
2023-02-21T05:04:53.603Z,1.20
2023-02-21T05:05:53.567Z,1.40
2023-02-21T05:06:53.542Z,1.30
2023-02-21T05:07:53.530Z,1.70
2023-02-21T05:08:53.517Z,1.70
2023-02-21T05:09:53.497Z,1.30
2023-02-21T05:10:53.475Z,2.00
2023-02-21T05:11:53.460Z,1.50
2023-02-21T05:12:53.440Z,1.50
2023-02-21T05:13:53.426Z,1.70
2023-02-21T05:14:53.407Z,1.90
2023-02-21T05:15:53.398Z,1.40
2023-02-21T05:16:53.417Z,1.50
2023-02-21T05:17:53.382Z,1.30
2023-02-21T05:18:53.338Z,1.40
2023-02-21T05:19:53.331Z,1.60
2023-02-21T05:20:53.304Z,1.20
2023-02-21T05:21:53.291Z,1.30
2023-02-21T05:22:55.898Z,1.70
2023-02-21T05:23:53.259Z,1.10
2023-02-21T05:24:53.237Z,1.80
2023-02-21T05:25:53.224Z,1.60
2023-02-21T05:26:53.204Z,1.20
2023-02-21T05:27:53.190Z,1.60
2023-02-21T05:28:53.172Z,1.20
2023-02-21T05:29:53.162Z,2.00
2023-02-21T05:30:53.210Z,2.00
2023-02-21T05:31:53.170Z,1.70
2023-02-21T05:32:53.103Z,1.20
2023-02-21T05:33:53.162Z,1.60
2023-02-21T05:34:53.079Z,1.60
2023-02-21T05:35:53.057Z,1.90
2023-02-21T05:36:53.037Z,1.40
2023-02-21T05:37:53.022Z,1.80
2023-02-21T05:38:53.054Z,1.50
2023-02-21T05:39:52.996Z,1.50
2023-02-21T05:40:52.968Z,1.80
2023-02-21T05:41:52.955Z,2.10
2023-02-21T05:42:52.936Z,2.20
2023-02-21T05:43:52.925Z,1.60
2023-02-21T05:44:52.903Z,2.10
2023-02-21T05:45:52.904Z,1.50
2023-02-21T05:46:52.870Z,2.40
2023-02-21T05:47:52.855Z,1.90
2023-02-21T05:48:52.834Z,1.90
2023-02-21T05:49:52.846Z,2.30
2023-02-21T05:50:52.799Z,1.80
2023-02-21T05:51:52.787Z,2.70
2023-02-21T05:52:52.769Z,1.70
2023-02-21T05:53:52.762Z,1.80
2023-02-21T05:54:52.732Z,1.90
2023-02-21T05:55:52.719Z,1.60
2023-02-21T05:56:52.695Z,1.60
2023-02-21T05:57:52.683Z,1.90
2023-02-21T05:58:52.663Z,2.40
2023-02-21T05:59:52.649Z,1.80
2023-02-21T06:00:52.639Z,1.60
2023-02-21T06:01:52.617Z,1.90
2023-02-21T06:02:52.610Z,1.60
2023-02-21T06:03:52.596Z,1.60
2023-02-21T06:04:52.559Z,2.00
2023-02-21T06:05:52.566Z,1.80
2023-02-21T06:06:52.524Z,1.70
2023-02-21T06:07:52.540Z,1.60
2023-02-21T06:08:52.492Z,2.00
2023-02-21T06:09:52.478Z,1.60
2023-02-21T06:10:52.457Z,1.90
2023-02-21T06:11:52.443Z,1.70
2023-02-21T06:12:52.432Z,2.10
2023-02-21T06:13:52.413Z,1.50
2023-02-21T06:14:52.387Z,1.60
2023-02-21T06:15:52.413Z,1.70
2023-02-21T06:16:52.359Z,1.80
2023-02-21T06:17:52.340Z,1.50
2023-02-21T06:18:52.325Z,2.00
2023-02-21T06:20:25.519Z,1.50
2023-02-21T06:20:52.289Z,1.30
2023-02-21T06:21:52.293Z,1.60
2023-02-21T06:22:52.253Z,1.60
2023-02-21T06:23:52.240Z,1.60
2023-02-21T06:24:52.310Z,1.30
2023-02-21T06:25:52.201Z,1.40
2023-02-21T06:26:52.201Z,2.10
2023-02-21T06:27:52.167Z,1.70
2023-02-21T06:28:52.163Z,2.20
2023-02-21T06:29:52.136Z,1.50
2023-02-21T06:31:52.129Z,1.60
2023-02-21T06:32:52.087Z,1.30
2023-02-21T06:33:52.074Z,1.40
2023-02-21T06:34:52.059Z,1.70
2023-02-21T06:35:52.041Z,1.70
2023-02-21T06:36:52.017Z,2.00
2023-02-21T06:37:52.023Z,2.10
2023-02-21T06:38:51.988Z,2.30
2023-02-21T06:39:51.972Z,2.20
2023-02-21T06:40:51.953Z,1.90
2023-02-21T06:41:51.935Z,2.10
2023-02-21T06:42:51.916Z,2.10
2023-02-21T06:43:51.908Z,2.50
2023-02-21T06:44:51.881Z,2.20
2023-02-21T06:45:52.070Z,2.50
2023-02-21T06:46:51.849Z,1.80
2023-02-21T06:47:51.835Z,2.70
2023-02-21T06:48:51.815Z,2.50
2023-02-21T06:49:51.804Z,2.10
2023-02-21T06:50:51.788Z,2.20
2023-02-21T06:51:51.771Z,2.00
2023-02-21T06:52:51.747Z,2.40
2023-02-21T06:53:51.785Z,2.00
2023-02-21T06:54:51.716Z,2.10
2023-02-21T06:55:51.702Z,2.30
2023-02-21T06:56:51.684Z,2.40
2023-02-21T06:57:51.666Z,2.30
2023-02-21T06:58:51.654Z,2.40
2023-02-21T06:59:51.641Z,1.70
2023-02-21T07:00:51.619Z,1.50
2023-02-21T07:01:51.614Z,2.30
2023-02-21T07:02:51.579Z,2.40
2023-02-21T07:03:51.565Z,1.90
2023-02-21T07:04:51.613Z,1.40
2023-02-21T07:05:51.553Z,2.60
2023-02-21T07:06:51.508Z,1.80
2023-02-21T07:07:51.492Z,2.00
2023-02-21T07:08:51.475Z,1.50
2023-02-21T07:09:51.479Z,1.90
2023-02-21T07:10:51.444Z,2.00
2023-02-21T07:11:51.436Z,1.80
2023-02-21T07:12:51.409Z,2.90
2023-02-21T07:13:51.390Z,1.50
2023-02-21T07:14:51.374Z,2.60
2023-02-21T07:15:51.379Z,2.20
2023-02-21T07:16:51.340Z,1.60
2023-02-21T07:17:51.323Z,2.10
2023-02-21T07:18:51.307Z,1.40
2023-02-21T07:19:51.287Z,2.10
2023-02-21T07:20:51.270Z,2.70
2023-02-21T07:21:51.254Z,2.60
2023-02-21T07:22:51.237Z,2.20
2023-02-21T07:23:51.234Z,2.70
2023-02-21T07:24:51.204Z,3.30
2023-02-21T07:25:51.201Z,2.10
2023-02-21T07:26:51.370Z,2.90
2023-02-21T07:27:51.146Z,2.90
2023-02-21T07:28:51.213Z,3.20
2023-02-21T07:29:51.118Z,2.60
2023-02-21T07:30:51.111Z,3.10
2023-02-21T07:31:51.251Z,2.30
2023-02-21T07:32:51.065Z,2.60
2023-02-21T07:33:51.050Z,2.50
2023-02-21T07:34:51.036Z,1.90
2023-02-21T07:35:51.013Z,2.10
2023-02-21T07:36:51.013Z,2.20
2023-02-21T07:37:50.983Z,1.80
2023-02-21T07:38:50.966Z,2.10
2023-02-21T07:39:50.946Z,1.70
2023-02-21T07:40:50.933Z,1.80
2023-02-21T07:41:50.934Z,1.90
2023-02-21T07:42:50.901Z,2.00
2023-02-21T07:43:50.879Z,1.90
2023-02-21T07:44:50.866Z,2.00
2023-02-21T07:45:50.895Z,2.60
2023-02-21T07:46:50.833Z,1.80
2023-02-21T07:47:50.813Z,1.70
2023-02-21T07:48:50.801Z,1.20
2023-02-21T07:49:50.785Z,2.20
2023-02-21T07:50:50.765Z,1.60
2023-02-21T07:51:50.746Z,2.40
2023-02-21T07:52:50.733Z,2.60
2023-02-21T07:53:50.715Z,1.80
2023-02-21T07:54:50.700Z,1.40
2023-02-21T07:55:50.685Z,2.20
2023-02-21T07:56:50.671Z,1.50
2023-02-21T07:57:50.673Z,2.10
2023-02-21T07:58:50.632Z,2.40
2023-02-21T07:59:50.612Z,1.90
2023-02-21T08:00:50.604Z,2.30
2023-02-21T08:01:50.611Z,2.00
2023-02-21T08:02:50.566Z,1.80
2023-02-21T08:03:50.547Z,2.40
2023-02-21T08:04:50.635Z,2.00
2023-02-21T08:05:50.518Z,2.20
2023-02-21T08:06:50.502Z,2.00
2023-02-21T08:07:50.482Z,2.00
2023-02-21T08:08:50.470Z,1.60
2023-02-21T08:09:50.449Z,2.60
2023-02-21T08:10:50.435Z,2.00
2023-02-21T08:11:50.414Z,1.60
2023-02-21T08:12:50.413Z,1.60
2023-02-21T08:13:50.407Z,2.10
2023-02-21T08:14:50.369Z,1.40
2023-02-21T08:15:50.384Z,2.00
2023-02-21T08:16:50.335Z,2.00
2023-02-21T08:17:50.319Z,1.80
2023-02-21T08:18:50.308Z,1.80
2023-02-21T08:19:50.283Z,2.20
2023-02-21T08:20:50.271Z,1.70
2023-02-21T08:21:50.256Z,1.70
2023-02-21T08:22:50.237Z,1.70
2023-02-21T08:23:50.218Z,1.80
2023-02-21T08:24:50.206Z,2.30
2023-02-21T08:25:50.190Z,1.80
2023-02-21T08:26:50.180Z,1.80
2023-02-21T08:27:50.155Z,4.40
2023-02-21T08:28:50.141Z,3.90
2023-02-21T08:29:50.152Z,4.40
2023-02-21T08:30:50.111Z,5.20
2023-02-21T08:31:50.181Z,5.30
2023-02-21T08:32:50.080Z,5.30
2023-02-21T08:33:50.060Z,4.70
2023-02-21T08:34:50.048Z,4.80
2023-02-21T08:35:50.057Z,5.00
2023-02-21T08:36:50.016Z,5.20
2023-02-21T08:37:50.008Z,4.70
2023-02-21T08:38:49.986Z,4.40
2023-02-21T08:39:49.968Z,4.70
2023-02-21T08:40:49.957Z,5.00
2023-02-21T08:41:49.942Z,4.70
2023-02-21T08:42:49.926Z,4.50
2023-02-21T08:43:49.907Z,1.60
2023-02-21T08:44:49.894Z,2.50
2023-02-21T08:45:49.896Z,2.20
2023-02-21T08:46:50.019Z,2.10
2023-02-21T08:47:49.844Z,1.60
2023-02-21T08:48:49.833Z,1.30
2023-02-21T08:49:49.820Z,1.40
2023-02-21T08:50:49.802Z,2.80
2023-02-21T08:51:49.784Z,4.40
2023-02-21T08:52:49.775Z,5.30
2023-02-21T08:53:49.754Z,4.30
2023-02-21T08:54:49.743Z,5.00
2023-02-21T08:55:49.723Z,4.70
2023-02-21T08:56:49.723Z,5.00
2023-02-21T08:57:49.704Z,4.40
2023-02-21T08:58:49.683Z,4.80
2023-02-21T08:59:49.666Z,4.30
2023-02-21T09:00:49.674Z,5.10
2023-02-21T09:01:49.761Z,5.10
2023-02-21T09:02:49.623Z,5.20
2023-02-21T09:03:49.613Z,4.70
2023-02-21T09:04:49.642Z,4.70
2023-02-21T09:05:49.579Z,4.70
2023-02-21T09:06:49.565Z,4.10
2023-02-21T09:07:49.560Z,4.80
2023-02-21T09:08:49.536Z,5.00
2023-02-21T09:09:49.520Z,4.70
2023-02-21T09:10:49.622Z,4.50
2023-02-21T09:11:49.490Z,4.70
2023-02-21T09:12:49.474Z,4.90
2023-02-21T09:13:49.456Z,5.20
2023-02-21T09:14:49.449Z,4.70
2023-02-21T09:15:49.427Z,4.90
2023-02-21T09:16:49.494Z,5.20
2023-02-21T09:17:49.417Z,4.90
2023-02-21T09:18:49.393Z,4.40
2023-02-21T09:19:49.373Z,5.10
2023-02-21T09:20:49.361Z,4.80
2023-02-21T09:21:49.346Z,5.60
2023-02-21T09:22:49.341Z,5.10
2023-02-21T09:23:49.317Z,4.90
2023-02-21T09:24:49.308Z,5.30
2023-02-21T09:25:49.297Z,5.10
2023-02-21T09:26:49.281Z,5.50
2023-02-21T09:27:49.270Z,5.10
2023-02-21T09:28:49.247Z,5.70
2023-02-21T09:29:49.236Z,5.20
2023-02-21T09:30:49.231Z,4.90
2023-02-21T09:31:49.254Z,5.20
2023-02-21T09:32:49.192Z,5.30
2023-02-21T09:33:49.200Z,5.00
2023-02-21T09:34:49.164Z,5.40
2023-02-21T09:35:49.148Z,5.00
2023-02-21T09:36:49.144Z,4.80
2023-02-21T09:37:49.125Z,4.60
2023-02-21T09:38:49.114Z,4.40
2023-02-21T09:39:49.094Z,5.40
2023-02-21T09:40:49.083Z,5.20
2023-02-21T09:41:49.073Z,5.60
2023-02-21T09:42:49.063Z,5.00
2023-02-21T09:43:49.042Z,5.00
2023-02-21T09:44:49.230Z,4.50
2023-02-21T09:45:49.027Z,5.10
2023-02-21T09:46:49.001Z,5.20
2023-02-21T09:47:48.986Z,5.00
2023-02-21T09:48:48.981Z,5.00
2023-02-21T09:49:48.979Z,4.80
2023-02-21T09:50:48.958Z,5.60
2023-02-21T09:51:48.933Z,5.30
2023-02-21T09:52:48.923Z,4.80
2023-02-21T09:53:48.923Z,5.50
2023-02-21T09:54:48.893Z,4.70
2023-02-21T09:55:48.879Z,5.10
2023-02-21T09:56:48.867Z,4.80
2023-02-21T09:57:48.872Z,5.00
2023-02-21T09:58:48.842Z,5.60
2023-02-21T09:59:48.830Z,4.70
2023-02-21T10:00:48.851Z,5.60
2023-02-21T10:01:48.799Z,5.10
2023-02-21T10:02:48.788Z,4.70
2023-02-21T10:03:48.772Z,5.30
2023-02-21T10:04:48.877Z,5.30
2023-02-21T10:05:48.788Z,5.00
2023-02-21T10:06:48.754Z,5.00
2023-02-21T10:07:48.733Z,5.00
2023-02-21T10:08:48.716Z,5.10
2023-02-21T10:09:48.913Z,5.60
2023-02-21T10:10:48.689Z,5.50
2023-02-21T10:11:48.672Z,5.00
2023-02-21T10:12:48.675Z,5.20
2023-02-21T10:13:48.644Z,5.00
2023-02-21T10:14:48.640Z,5.60
2023-02-21T10:15:48.621Z,5.40
2023-02-21T10:16:48.657Z,5.30
2023-02-21T10:17:48.604Z,4.70
2023-02-21T10:18:48.604Z,4.70
2023-02-21T10:19:48.570Z,4.70
2023-02-21T10:20:48.566Z,5.40
2023-02-21T10:21:48.580Z,5.10
2023-02-21T10:22:48.536Z,5.20
2023-02-21T10:23:48.531Z,5.20
2023-02-21T10:24:48.519Z,5.40
2023-02-21T10:25:48.501Z,5.40
2023-02-21T10:26:48.498Z,5.10
2023-02-21T10:27:48.473Z,5.30
2023-02-21T10:28:48.481Z,5.90
2023-02-21T10:29:48.448Z,5.50
2023-02-21T10:30:48.562Z,5.30
2023-02-21T10:31:48.589Z,5.20
2023-02-21T10:32:48.418Z,6.30
2023-02-21T10:33:48.425Z,5.80
2023-02-21T10:34:48.409Z,5.70
2023-02-21T10:35:48.382Z,5.20
2023-02-21T10:36:48.368Z,5.30
2023-02-21T10:37:48.423Z,5.30
2023-02-21T10:38:48.342Z,5.70
2023-02-21T10:39:48.329Z,5.80
2023-02-21T10:40:48.319Z,5.60
2023-02-21T10:41:48.309Z,5.20
2023-02-21T10:42:48.299Z,5.10
2023-02-21T10:43:48.319Z,6.10
2023-02-21T10:44:48.271Z,5.80
2023-02-21T10:45:48.288Z,6.20
2023-02-21T10:46:48.249Z,5.50
2023-02-21T10:47:48.237Z,5.20
2023-02-21T10:48:48.235Z,5.60
2023-02-21T10:49:48.213Z,6.00
2023-02-21T10:50:48.201Z,5.70
2023-02-21T10:51:48.187Z,5.80
2023-02-21T10:52:48.236Z,5.80
2023-02-21T10:53:48.191Z,5.70
2023-02-21T10:54:48.154Z,5.30
2023-02-21T10:55:48.140Z,5.30
2023-02-21T10:56:48.131Z,6.00
2023-02-21T10:57:48.115Z,5.20
2023-02-21T10:58:48.106Z,6.00
2023-02-21T10:59:50.611Z,6.00
2023-02-21T11:00:48.595Z,5.60
2023-02-21T11:01:48.069Z,6.30
2023-02-21T11:02:48.138Z,6.30
2023-02-21T11:03:48.046Z,6.20
2023-02-21T11:04:48.038Z,6.20
2023-02-21T11:05:48.023Z,5.70
2023-02-21T11:06:48.022Z,5.90
2023-02-21T11:07:48.001Z,5.00
2023-02-21T11:08:47.999Z,6.00
2023-02-21T11:09:47.998Z,5.70
2023-02-21T11:10:47.971Z,5.40
2023-02-21T11:11:47.970Z,5.50
2023-02-21T11:12:47.948Z,6.00
2023-02-21T11:13:47.935Z,6.60
2023-02-21T11:14:47.927Z,5.80
2023-02-21T11:15:47.959Z,6.10
2023-02-21T11:16:47.904Z,5.90
2023-02-21T11:17:47.892Z,5.80
2023-02-21T11:18:47.884Z,6.70
2023-02-21T11:19:47.876Z,6.60
2023-02-21T11:20:47.861Z,6.00
2023-02-21T11:21:47.849Z,6.60
2023-02-21T11:22:47.842Z,6.20
2023-02-21T11:23:47.831Z,6.70
2023-02-21T11:24:47.817Z,6.10
2023-02-21T11:25:47.829Z,6.20
2023-02-21T11:26:47.797Z,6.30
2023-02-21T11:27:47.787Z,6.10
2023-02-21T11:28:47.772Z,6.30
2023-02-21T11:29:47.764Z,5.80
2023-02-21T11:30:47.910Z,6.20
2023-02-21T11:31:47.951Z,6.20
2023-02-21T11:32:47.731Z,6.30
2023-02-21T11:33:47.725Z,6.10
2023-02-21T11:34:47.709Z,5.60
2023-02-21T11:35:47.717Z,6.40
2023-02-21T11:36:47.689Z,6.60
2023-02-21T11:37:47.684Z,6.50
2023-02-21T11:38:47.670Z,6.20
2023-02-21T11:40:47.703Z,6.00
2023-02-21T11:41:47.657Z,6.30
2023-02-21T11:42:47.631Z,6.80
2023-02-21T11:43:48.048Z,6.20
2023-02-21T11:44:47.617Z,6.10
2023-02-21T11:45:47.625Z,6.40
2023-02-21T11:46:47.594Z,6.00
2023-02-21T11:47:47.580Z,5.70
2023-02-21T11:48:47.580Z,5.70
2023-02-21T11:49:49.848Z,5.90
2023-02-21T11:50:47.549Z,5.60
2023-02-21T11:51:47.538Z,5.90
2023-02-21T11:52:47.528Z,5.90
2023-02-21T11:53:47.517Z,6.00
2023-02-21T11:54:47.508Z,6.10
2023-02-21T11:55:47.505Z,5.50
2023-02-21T11:56:47.484Z,5.60
2023-02-21T11:57:47.490Z,5.50
2023-02-21T11:58:47.473Z,5.70
2023-02-21T11:59:47.451Z,6.40
2023-02-21T12:00:47.448Z,6.20
2023-02-21T12:01:47.434Z,6.20
2023-02-21T12:02:47.486Z,5.60
2023-02-21T12:03:47.412Z,6.00
2023-02-21T12:04:47.403Z,5.80
2023-02-21T12:05:47.468Z,5.90
2023-02-21T12:06:50.095Z,5.50
2023-02-21T12:07:47.380Z,5.70
2023-02-21T12:08:47.362Z,5.80
2023-02-21T12:09:47.389Z,5.20
2023-02-21T12:10:47.418Z,4.90
2023-02-21T12:11:47.377Z,4.90
2023-02-21T12:12:47.395Z,5.70
2023-02-21T12:13:47.364Z,5.80
2023-02-21T12:14:47.309Z,6.20
2023-02-21T12:15:47.368Z,6.00
2023-02-21T12:16:47.286Z,5.70
2023-02-21T12:17:47.273Z,5.70
2023-02-21T12:18:47.269Z,5.30
2023-02-21T12:19:47.254Z,5.50
2023-02-21T12:20:47.256Z,5.70
2023-02-21T12:21:47.235Z,5.70
2023-02-21T12:23:47.225Z,4.90
2023-02-21T12:24:47.224Z,6.30
2023-02-21T12:25:47.206Z,5.50
2023-02-21T12:26:47.195Z,5.30
2023-02-21T12:28:47.175Z,5.10
2023-02-21T12:29:47.193Z,5.90
2023-02-21T12:30:47.178Z,4.80
2023-02-21T12:31:47.316Z,4.80
2023-02-21T12:32:47.140Z,4.80
2023-02-21T12:33:47.130Z,5.50
2023-02-21T12:34:47.121Z,5.20
2023-02-21T12:35:47.342Z,4.50
2023-02-21T12:36:47.104Z,5.80
2023-02-21T12:37:47.093Z,5.80
2023-02-21T12:38:47.085Z,5.80
2023-02-21T12:39:47.075Z,5.80
2023-02-21T12:42:20.283Z,5.10
2023-02-21T12:42:47.050Z,5.60
2023-02-21T12:44:47.027Z,5.60
2023-02-21T12:45:47.044Z,5.20
2023-02-21T12:46:47.124Z,5.20
2023-02-21T12:47:47.007Z,5.10
2023-02-21T12:48:47.196Z,4.60
2023-02-21T12:49:46.988Z,5.20
2023-02-21T12:50:46.984Z,5.60
2023-02-21T12:51:46.977Z,5.50
2023-02-21T12:52:46.970Z,6.00
2023-02-21T12:53:46.963Z,5.50
2023-02-21T12:54:46.950Z,5.60
2023-02-21T12:55:46.938Z,5.80
2023-02-21T12:56:46.926Z,5.90
2023-02-21T12:57:46.936Z,5.70
2023-02-21T12:58:46.905Z,6.10
2023-02-21T12:59:46.933Z,6.00
2023-02-21T13:00:46.889Z,5.60
2023-02-21T13:01:46.927Z,5.40
2023-02-21T13:02:46.924Z,5.40
2023-02-21T13:03:46.865Z,6.10
2023-02-21T13:04:46.864Z,5.80
2023-02-21T13:05:46.846Z,5.90
2023-02-21T13:06:46.838Z,5.50
2023-02-21T13:07:46.829Z,5.70
2023-02-21T13:08:46.817Z,5.40
2023-02-21T13:09:46.810Z,5.50
2023-02-21T13:10:46.799Z,5.70
2023-02-21T13:11:46.793Z,5.00
2023-02-21T13:12:46.780Z,5.60
2023-02-21T13:13:46.775Z,4.90
2023-02-21T13:14:46.767Z,5.50
2023-02-21T13:15:46.824Z,5.20
2023-02-21T13:16:46.746Z,6.00
2023-02-21T13:17:46.765Z,5.60
2023-02-21T13:18:46.728Z,5.80
2023-02-21T13:19:46.727Z,6.00
2023-02-21T13:20:46.711Z,6.20
2023-02-21T13:21:46.706Z,5.40
2023-02-21T13:23:46.687Z,6.40
2023-02-21T13:24:46.680Z,5.40
2023-02-21T13:25:46.679Z,6.00
2023-02-21T13:26:46.672Z,5.00
2023-02-21T13:27:46.852Z,6.00
2023-02-21T13:28:46.674Z,6.00
2023-02-21T13:29:46.638Z,6.00